createdAt,value
2022-12-17T00:00:24.518Z,-9.6
2022-12-17T00:01:21.313Z,-9.6
2022-12-17T00:02:21.372Z,-9.6
2022-12-17T00:03:21.497Z,-9.7
2022-12-17T00:04:21.346Z,-9.7
2022-12-17T00:05:21.314Z,-9.7
2022-12-17T00:06:21.314Z,-9.7
2022-12-17T00:07:21.490Z,-9.7
2022-12-17T00:08:21.393Z,-9.7
2022-12-17T00:09:21.619Z,-9.8
2022-12-17T00:10:21.524Z,-9.8
2022-12-17T00:11:21.311Z,-9.8
2022-12-17T00:12:21.572Z,-9.8
2022-12-17T00:13:21.411Z,-9.8
2022-12-17T00:14:21.326Z,-9.8
2022-12-17T00:15:21.892Z,-9.9
2022-12-17T00:16:21.372Z,-9.9
2022-12-17T00:17:21.449Z,-9.9
2022-12-17T00:18:21.721Z,-9.9
2022-12-17T00:19:21.310Z,-9.9
2022-12-17T00:20:21.424Z,-9.9
2022-12-17T00:21:21.314Z,-9.9
2022-12-17T00:22:21.309Z,-9.9
2022-12-17T00:23:21.307Z,-9.9
2022-12-17T00:24:21.332Z,-10
2022-12-17T00:25:21.312Z,-10
2022-12-17T00:26:21.318Z,-10
2022-12-17T00:27:21.313Z,-10
2022-12-17T00:28:21.374Z,-10
2022-12-17T00:29:21.307Z,-10
2022-12-17T00:30:21.315Z,-10
2022-12-17T00:31:21.400Z,-10
2022-12-17T00:32:21.317Z,-10
2022-12-17T00:33:21.313Z,-10
2022-12-17T00:34:21.323Z,-10
2022-12-17T00:35:21.315Z,-9.9
2022-12-17T00:36:21.313Z,-9.9
2022-12-17T00:37:21.320Z,-10
2022-12-17T00:38:21.307Z,-10
2022-12-17T00:39:21.320Z,-10
2022-12-17T00:40:21.316Z,-10
2022-12-17T00:41:21.313Z,-10
2022-12-17T00:42:21.313Z,-10
2022-12-17T00:43:21.313Z,-10
2022-12-17T00:44:21.341Z,-10
2022-12-17T00:45:21.312Z,-10
2022-12-17T00:46:21.381Z,-10
2022-12-17T00:47:21.310Z,-10
2022-12-17T00:48:21.309Z,-10
2022-12-17T00:49:21.331Z,-10
2022-12-17T00:50:21.309Z,-10
2022-12-17T00:51:21.452Z,-10
2022-12-17T00:52:21.306Z,-10
2022-12-17T00:53:21.314Z,-10
2022-12-17T00:54:21.326Z,-10
2022-12-17T00:55:21.316Z,-10
2022-12-17T00:56:21.313Z,-10
2022-12-17T00:57:21.309Z,-10
2022-12-17T00:58:21.319Z,-10
2022-12-17T00:59:21.324Z,-10
2022-12-17T01:00:21.310Z,-10
2022-12-17T01:01:21.400Z,-10
2022-12-17T01:02:21.377Z,-10
2022-12-17T01:03:21.309Z,-10
2022-12-17T01:04:21.312Z,-10
2022-12-17T01:05:21.306Z,-10.1
2022-12-17T01:06:21.312Z,-10.1
2022-12-17T01:07:21.311Z,-10.1
2022-12-17T01:08:21.394Z,-10.1
2022-12-17T01:09:21.557Z,-10.1
2022-12-17T01:10:21.313Z,-10.1
2022-12-17T01:11:21.307Z,-10.2
2022-12-17T01:12:21.309Z,-10.2
2022-12-17T01:13:21.307Z,-10.2
2022-12-17T01:14:21.337Z,-10.2
2022-12-17T01:15:21.305Z,-10.2
2022-12-17T01:16:21.374Z,-10.2
2022-12-17T01:17:21.310Z,-10.2
2022-12-17T01:18:21.305Z,-10.2
2022-12-17T01:19:21.328Z,-10.2
2022-12-17T01:20:21.313Z,-10.2
2022-12-17T01:21:21.310Z,-10.2
2022-12-17T01:22:21.314Z,-10.2
2022-12-17T01:23:21.308Z,-10.2
2022-12-17T01:24:21.308Z,-10.2
2022-12-17T01:25:21.308Z,-10.2
2022-12-17T01:26:21.313Z,-10.2
2022-12-17T01:27:21.311Z,-10.2
2022-12-17T01:28:21.316Z,-10.2
2022-12-17T01:29:21.316Z,-10.2
2022-12-17T01:30:21.309Z,-10.2
2022-12-17T01:31:21.359Z,-10.2
2022-12-17T01:32:21.312Z,-10.2
2022-12-17T01:33:21.324Z,-10.2
2022-12-17T01:34:21.315Z,-10.2
2022-12-17T01:35:21.309Z,-10.2
2022-12-17T01:36:21.317Z,-10.2
2022-12-17T01:37:21.307Z,-10.2
2022-12-17T01:38:21.313Z,-10.2
2022-12-17T01:39:21.395Z,-10.2
2022-12-17T01:40:21.369Z,-10.2
2022-12-17T01:41:21.506Z,-10.2
2022-12-17T01:42:21.508Z,-10.2
2022-12-17T01:43:21.426Z,-10.2
2022-12-17T01:44:21.637Z,-10.3
2022-12-17T01:45:21.406Z,-10.3
2022-12-17T01:46:21.445Z,-10.3
2022-12-17T01:47:21.306Z,-10.3
2022-12-17T01:48:21.309Z,-10.3
2022-12-17T01:49:21.306Z,-10.3
2022-12-17T01:50:21.311Z,-10.3
2022-12-17T01:51:21.311Z,-10.3
2022-12-17T01:52:21.308Z,-10.3
2022-12-17T01:53:21.320Z,-10.3
2022-12-17T01:54:21.313Z,-10.3
2022-12-17T01:55:21.310Z,-10.3
2022-12-17T01:56:21.314Z,-10.3
2022-12-17T01:57:21.395Z,-10.3
2022-12-17T01:58:21.311Z,-10.3
2022-12-17T01:59:21.315Z,-10.3
2022-12-17T02:00:21.312Z,-10.3
2022-12-17T02:01:21.504Z,-10.3
2022-12-17T02:02:21.450Z,-10.3
2022-12-17T02:03:21.351Z,-10.4
2022-12-17T02:04:21.317Z,-10.4
2022-12-17T02:05:21.312Z,-10.4
2022-12-17T02:06:21.314Z,-10.4
2022-12-17T02:07:21.404Z,-10.4
2022-12-17T02:08:21.671Z,-10.5
2022-12-17T02:09:21.785Z,-10.5
2022-12-17T02:10:21.496Z,-10.5
2022-12-17T02:11:21.317Z,-10.5
2022-12-17T02:12:21.421Z,-10.5
2022-12-17T02:13:21.310Z,-10.5
2022-12-17T02:14:21.331Z,-10.5
2022-12-17T02:15:21.311Z,-10.5
2022-12-17T02:16:21.337Z,-10.5
2022-12-17T02:17:21.309Z,-10.5
2022-12-17T02:18:21.312Z,-10.5
2022-12-17T02:19:21.334Z,-10.5
2022-12-17T02:20:21.309Z,-10.5
2022-12-17T02:21:21.311Z,-10.5
2022-12-17T02:22:21.313Z,-10.5
2022-12-17T02:23:21.309Z,-10.5
2022-12-17T02:24:21.425Z,-10.6
2022-12-17T02:25:21.312Z,-10.6
2022-12-17T02:26:21.323Z,-10.6
2022-12-17T02:27:21.325Z,-10.6
2022-12-17T02:28:21.316Z,-10.6
2022-12-17T02:29:21.325Z,-10.6
2022-12-17T02:30:21.346Z,-10.6
2022-12-17T02:31:21.329Z,-10.7
2022-12-17T02:32:21.315Z,-10.7
2022-12-17T02:33:21.313Z,-10.7
2022-12-17T02:34:21.318Z,-10.7
2022-12-17T02:35:21.327Z,-10.7
2022-12-17T02:36:21.315Z,-10.7
2022-12-17T02:37:21.317Z,-10.7
2022-12-17T02:38:21.318Z,-10.7
2022-12-17T02:39:21.360Z,-10.7
2022-12-17T02:40:21.331Z,-10.7
2022-12-17T02:41:21.308Z,-10.7
2022-12-17T02:42:21.309Z,-10.7
2022-12-17T02:43:21.306Z,-10.7
2022-12-17T02:44:21.306Z,-10.7
2022-12-17T02:45:21.325Z,-10.7
2022-12-17T02:46:21.348Z,-10.7
2022-12-17T02:47:21.315Z,-10.7
2022-12-17T02:48:21.325Z,-10.7
2022-12-17T02:49:21.307Z,-10.7
2022-12-17T02:50:21.311Z,-10.7
2022-12-17T02:51:21.310Z,-10.7
2022-12-17T02:52:21.316Z,-10.7
2022-12-17T02:53:21.328Z,-10.7
2022-12-17T02:54:21.315Z,-10.7
2022-12-17T02:55:21.309Z,-10.7
2022-12-17T02:56:21.327Z,-10.7
2022-12-17T02:57:21.324Z,-10.7
2022-12-17T02:58:21.310Z,-10.7
2022-12-17T02:59:21.311Z,-10.7
2022-12-17T03:00:21.309Z,-10.7
2022-12-17T03:01:21.439Z,-10.7
2022-12-17T03:02:21.390Z,-10.7
2022-12-17T03:03:21.389Z,-10.7
2022-12-17T03:04:21.311Z,-10.8
2022-12-17T03:05:43.765Z,-10.8
2022-12-17T03:06:21.313Z,-10.8
2022-12-17T03:07:21.313Z,-10.8
2022-12-17T03:08:21.316Z,-10.8
2022-12-17T03:09:21.310Z,-10.8
2022-12-17T03:10:21.341Z,-10.8
2022-12-17T03:11:21.318Z,-10.8
2022-12-17T03:12:21.315Z,-10.8
2022-12-17T03:13:21.313Z,-10.9
2022-12-17T03:14:21.314Z,-10.9
2022-12-17T03:15:21.330Z,-10.9
2022-12-17T03:16:21.317Z,-10.9
2022-12-17T03:17:21.310Z,-10.9
2022-12-17T03:18:21.316Z,-10.9
2022-12-17T03:19:21.308Z,-10.9
2022-12-17T03:20:21.325Z,-10.9
2022-12-17T03:21:21.313Z,-10.9
2022-12-17T03:22:21.314Z,-10.9
2022-12-17T03:23:21.316Z,-10.9
2022-12-17T03:24:21.310Z,-10.9
2022-12-17T03:25:21.578Z,-10.9
2022-12-17T03:26:21.314Z,-10.9
2022-12-17T03:27:21.313Z,-10.8
2022-12-17T03:28:21.330Z,-10.8
2022-12-17T03:29:21.327Z,-10.8
2022-12-17T03:30:21.339Z,-10.8
2022-12-17T03:31:21.329Z,-10.8
2022-12-17T03:32:21.311Z,-10.8
2022-12-17T03:33:21.355Z,-10.8
2022-12-17T03:34:21.329Z,-10.8
2022-12-17T03:35:21.377Z,-10.8
2022-12-17T03:36:21.441Z,-10.8
2022-12-17T03:37:21.413Z,-10.9
2022-12-17T03:38:21.345Z,-10.9
2022-12-17T03:39:21.310Z,-10.9
2022-12-17T03:40:21.341Z,-10.9
2022-12-17T03:41:21.585Z,-10.9
2022-12-17T03:42:21.500Z,-10.9
2022-12-17T03:43:21.698Z,-10.9
2022-12-17T03:44:21.316Z,-11
2022-12-17T03:45:21.308Z,-11
2022-12-17T03:46:21.406Z,-11
2022-12-17T03:47:21.360Z,-11
2022-12-17T03:48:21.583Z,-11
2022-12-17T03:49:21.534Z,-11
2022-12-17T03:50:21.418Z,-11
2022-12-17T03:51:21.321Z,-11
2022-12-17T03:52:21.943Z,-11.1
2022-12-17T03:53:21.379Z,-11.1
2022-12-17T03:54:21.560Z,-11.1
2022-12-17T03:55:21.353Z,-11.1
2022-12-17T03:56:21.567Z,-11.1
2022-12-17T03:57:21.330Z,-11.1
2022-12-17T03:58:21.318Z,-11.1
2022-12-17T03:59:21.316Z,-11.1
2022-12-17T04:00:21.317Z,-11
2022-12-17T04:01:21.417Z,-11
2022-12-17T04:02:21.480Z,-11
2022-12-17T04:03:21.362Z,-11
2022-12-17T04:04:21.330Z,-10.9
2022-12-17T04:05:21.324Z,-10.9
2022-12-17T04:06:21.334Z,-10.9
2022-12-17T04:07:21.307Z,-10.8
2022-12-17T04:08:21.319Z,-10.8
2022-12-17T04:09:21.341Z,-10.7
2022-12-17T04:10:21.315Z,-10.7
2022-12-17T04:11:21.317Z,-10.6
2022-12-17T04:12:21.317Z,-10.6
2022-12-17T04:13:21.312Z,-10.5
2022-12-17T04:14:21.311Z,-10.5
2022-12-17T04:15:21.356Z,-10.5
2022-12-17T04:16:21.314Z,-10.4
2022-12-17T04:17:21.312Z,-10.3
2022-12-17T04:18:21.347Z,-10.3
2022-12-17T04:19:21.318Z,-10.3
2022-12-17T04:20:21.310Z,-10.3
2022-12-17T04:21:21.313Z,-10.3
2022-12-17T04:22:21.312Z,-10.2
2022-12-17T04:23:21.329Z,-10.2
2022-12-17T04:24:21.311Z,-10.2
2022-12-17T04:25:21.319Z,-10.2
2022-12-17T04:26:21.310Z,-10.2
2022-12-17T04:27:21.573Z,-10.2
2022-12-17T04:28:21.322Z,-10.1
2022-12-17T04:29:21.314Z,-10.1
2022-12-17T04:30:21.311Z,-10.1
2022-12-17T04:31:21.442Z,-10.1
2022-12-17T04:32:21.310Z,-10
2022-12-17T04:33:21.319Z,-10
2022-12-17T04:34:21.315Z,-10
2022-12-17T04:35:21.316Z,-10
2022-12-17T04:36:21.310Z,-10
2022-12-17T04:37:21.314Z,-10
2022-12-17T04:38:21.310Z,-10
2022-12-17T04:39:21.314Z,-10
2022-12-17T04:40:21.319Z,-10
2022-12-17T04:41:21.312Z,-10
2022-12-17T04:42:21.307Z,-10
2022-12-17T04:43:21.307Z,-10
2022-12-17T04:44:21.306Z,-10
2022-12-17T04:45:21.307Z,-10
2022-12-17T04:46:21.324Z,-10
2022-12-17T04:47:21.307Z,-10
2022-12-17T04:48:21.311Z,-10
2022-12-17T04:49:21.318Z,-10
2022-12-17T04:50:21.326Z,-10
2022-12-17T04:51:21.313Z,-10
2022-12-17T04:52:21.311Z,-10
2022-12-17T04:53:21.306Z,-10
2022-12-17T04:54:21.329Z,-10
2022-12-17T04:55:21.312Z,-10
2022-12-17T04:56:21.308Z,-10
2022-12-17T04:57:21.307Z,-10
2022-12-17T04:58:21.309Z,-10
2022-12-17T04:59:21.311Z,-10
2022-12-17T05:00:21.308Z,-10
2022-12-17T05:01:21.367Z,-10
2022-12-17T05:02:21.412Z,-10
2022-12-17T05:03:21.324Z,-10
2022-12-17T05:04:21.338Z,-10
2022-12-17T05:05:21.313Z,-10
2022-12-17T05:06:21.312Z,-10
2022-12-17T05:07:21.314Z,-10.1
2022-12-17T05:08:21.308Z,-10.1
2022-12-17T05:09:21.317Z,-10.1
2022-12-17T05:10:21.314Z,-10.1
2022-12-17T05:11:21.307Z,-10.1
2022-12-17T05:12:21.309Z,-10.1
2022-12-17T05:13:21.313Z,-10.1
2022-12-17T05:14:21.308Z,-10.2
2022-12-17T05:15:21.308Z,-10.2
2022-12-17T05:16:21.414Z,-10.2
2022-12-17T05:17:21.313Z,-10.2
2022-12-17T05:18:21.309Z,-10.2
2022-12-17T05:19:21.306Z,-10.2
2022-12-17T05:20:21.340Z,-10.2
2022-12-17T05:21:21.310Z,-10.2
2022-12-17T05:22:21.318Z,-10.3
2022-12-17T05:23:21.631Z,-10.3
2022-12-17T05:24:21.310Z,-10.3
2022-12-17T05:25:21.315Z,-10.3
2022-12-17T05:26:21.315Z,-10.3
2022-12-17T05:27:21.308Z,-10.3
2022-12-17T05:28:21.309Z,-10.3
2022-12-17T05:29:21.316Z,-10.3
2022-12-17T05:30:21.313Z,-10.4
2022-12-17T05:31:21.365Z,-10.4
2022-12-17T05:32:21.310Z,-10.4
2022-12-17T05:33:21.312Z,-10.5
2022-12-17T05:34:21.307Z,-10.5
2022-12-17T05:35:21.309Z,-10.5
2022-12-17T05:36:21.309Z,-10.5
2022-12-17T05:37:21.310Z,-10.5
2022-12-17T05:38:21.307Z,-10.5
2022-12-17T05:39:21.311Z,-10.5
2022-12-17T05:40:21.310Z,-10.5
2022-12-17T05:41:21.550Z,-10.6
2022-12-17T05:42:21.784Z,-10.6
2022-12-17T05:43:21.308Z,-10.6
2022-12-17T05:44:21.314Z,-10.7
2022-12-17T05:45:21.443Z,-10.7
2022-12-17T05:46:21.360Z,-10.7
2022-12-17T05:47:21.309Z,-10.7
2022-12-17T05:48:21.317Z,-10.7
2022-12-17T05:49:21.309Z,-10.7
2022-12-17T05:50:21.313Z,-10.7
2022-12-17T05:51:21.336Z,-10.7
2022-12-17T05:52:21.312Z,-10.7
2022-12-17T05:53:21.308Z,-10.7
2022-12-17T05:54:21.316Z,-10.8
2022-12-17T05:55:21.313Z,-10.8
2022-12-17T05:56:21.344Z,-10.8
2022-12-17T05:57:21.314Z,-10.8
2022-12-17T05:58:21.315Z,-10.9
2022-12-17T05:59:21.317Z,-10.9
2022-12-17T06:00:21.438Z,-10.9
2022-12-17T06:01:21.356Z,-10.9
2022-12-17T06:02:21.370Z,-10.9
2022-12-17T06:03:21.371Z,-10.9
2022-12-17T06:04:21.310Z,-10.9
2022-12-17T06:05:21.333Z,-10.9
2022-12-17T06:06:21.312Z,-10.9
2022-12-17T06:07:21.311Z,-11
2022-12-17T06:08:21.313Z,-11
2022-12-17T06:09:21.309Z,-11
2022-12-17T06:10:21.325Z,-11
2022-12-17T06:11:21.312Z,-11
2022-12-17T06:12:21.308Z,-11
2022-12-17T06:13:21.311Z,-11
2022-12-17T06:14:21.314Z,-11
2022-12-17T06:15:21.351Z,-11
2022-12-17T06:16:21.378Z,-11
2022-12-17T06:17:21.314Z,-11
2022-12-17T06:18:21.310Z,-11
2022-12-17T06:19:21.313Z,-11.1
2022-12-17T06:20:21.328Z,-11.1
2022-12-17T06:21:21.315Z,-11.1
2022-12-17T06:22:21.313Z,-11.1
2022-12-17T06:23:21.313Z,-11.1
2022-12-17T06:24:21.308Z,-11.1
2022-12-17T06:25:21.335Z,-11.1
2022-12-17T06:26:21.316Z,-11.1
2022-12-17T06:27:21.316Z,-11.1
2022-12-17T06:28:21.316Z,-11.1
2022-12-17T06:29:21.338Z,-11.1
2022-12-17T06:30:21.503Z,-11.1
2022-12-17T06:31:21.375Z,-11.1
2022-12-17T06:32:21.316Z,-11.1
2022-12-17T06:33:21.308Z,-11.2
2022-12-17T06:34:21.306Z,-11.2
2022-12-17T06:35:21.320Z,-11.2
2022-12-17T06:36:22.741Z,-11.2
2022-12-17T06:37:21.315Z,-11.2
2022-12-17T06:38:21.314Z,-11.2
2022-12-17T06:39:21.312Z,-11.2
2022-12-17T06:40:21.331Z,-11.2
2022-12-17T06:41:21.315Z,-11.2
2022-12-17T06:42:21.311Z,-11.3
2022-12-17T06:43:21.311Z,-11.3
2022-12-17T06:44:21.310Z,-11.3
2022-12-17T06:45:21.331Z,-11.3
2022-12-17T06:46:21.331Z,-11.3
2022-12-17T06:47:21.308Z,-11.4
2022-12-17T06:48:21.313Z,-11.4
2022-12-17T06:49:21.312Z,-11.4
2022-12-17T06:50:21.336Z,-11.4
2022-12-17T06:51:21.310Z,-11.4
2022-12-17T06:52:21.311Z,-11.4
2022-12-17T06:53:21.326Z,-11.4
2022-12-17T06:54:21.310Z,-11.4
2022-12-17T06:55:21.329Z,-11.4
2022-12-17T06:56:21.309Z,-11.4
2022-12-17T06:57:21.321Z,-11.4
2022-12-17T06:58:21.332Z,-11.4
2022-12-17T06:59:21.560Z,-11.4
2022-12-17T07:00:21.569Z,-11.4
2022-12-17T07:01:21.419Z,-11.4
2022-12-17T07:02:21.375Z,-11.4
2022-12-17T07:03:21.376Z,-11.4
2022-12-17T07:04:21.308Z,-11.4
2022-12-17T07:05:21.310Z,-11.5
2022-12-17T07:06:21.316Z,-11.5
2022-12-17T07:07:21.328Z,-11.5
2022-12-17T07:08:21.315Z,-11.5
2022-12-17T07:09:21.309Z,-11.5
2022-12-17T07:10:21.317Z,-11.5
2022-12-17T07:11:21.356Z,-11.5
2022-12-17T07:12:21.318Z,-11.5
2022-12-17T07:13:21.310Z,-11.5
2022-12-17T07:14:21.385Z,-11.5
2022-12-17T07:15:21.584Z,-11.5
2022-12-17T07:16:21.581Z,-11.5
2022-12-17T07:17:21.449Z,-11.5
2022-12-17T07:18:21.330Z,-11.5
2022-12-17T07:19:25.442Z,-11.5
2022-12-17T07:20:21.310Z,-11.5
2022-12-17T07:21:21.312Z,-11.5
2022-12-17T07:22:21.539Z,-11.5
2022-12-17T07:23:21.413Z,-11.5
2022-12-17T07:24:21.315Z,-11.5
2022-12-17T07:25:21.425Z,-11.4
2022-12-17T07:26:21.318Z,-11.5
2022-12-17T07:27:21.907Z,-11.4
2022-12-17T07:28:21.313Z,-11.4
2022-12-17T07:29:21.586Z,-11.4
2022-12-17T07:30:21.368Z,-11.4
2022-12-17T07:31:21.623Z,-11.4
2022-12-17T07:32:21.310Z,-11.4
2022-12-17T07:33:21.311Z,-11.4
2022-12-17T07:34:21.310Z,-11.4
2022-12-17T07:35:21.315Z,-11.4
2022-12-17T07:36:21.314Z,-11.4
2022-12-17T07:37:21.306Z,-11.4
2022-12-17T07:38:21.310Z,-11.3
2022-12-17T07:39:21.320Z,-11.3
2022-12-17T07:40:21.309Z,-11.3
2022-12-17T07:41:21.321Z,-11.3
2022-12-17T07:42:21.310Z,-11.2
2022-12-17T07:43:21.312Z,-11.2
2022-12-17T07:44:21.316Z,-11.2
2022-12-17T07:45:21.312Z,-11.2
2022-12-17T07:46:21.369Z,-11.2
2022-12-17T07:47:21.317Z,-11.2
2022-12-17T07:48:21.326Z,-11.1
2022-12-17T07:49:24.066Z,-11.1
2022-12-17T07:50:21.322Z,-11.1
2022-12-17T07:51:21.328Z,-11
2022-12-17T07:52:21.323Z,-11
2022-12-17T07:53:21.315Z,-11
2022-12-17T07:54:21.315Z,-11
2022-12-17T07:55:21.326Z,-11
2022-12-17T07:56:21.309Z,-10.9
2022-12-17T07:57:21.330Z,-10.9
2022-12-17T07:58:21.324Z,-10.9
2022-12-17T07:59:21.307Z,-10.9
2022-12-17T08:00:21.310Z,-10.9
2022-12-17T08:01:21.506Z,-10.8
2022-12-17T08:02:21.698Z,-10.8
2022-12-17T08:03:21.379Z,-10.8
2022-12-17T08:04:21.308Z,-10.7
2022-12-17T08:05:21.311Z,-10.7
2022-12-17T08:06:21.316Z,-10.7
2022-12-17T08:07:21.311Z,-10.7
2022-12-17T08:08:21.333Z,-10.6
2022-12-17T08:09:21.370Z,-10.6
2022-12-17T08:10:21.314Z,-10.5
2022-12-17T08:11:21.309Z,-10.5
2022-12-17T08:12:21.310Z,-10.5
2022-12-17T08:13:21.329Z,-10.5
2022-12-17T08:14:21.313Z,-10.4
2022-12-17T08:15:21.315Z,-10.4
2022-12-17T08:16:21.350Z,-10.4
2022-12-17T08:17:21.313Z,-10.3
2022-12-17T08:18:26.021Z,-10.3
2022-12-17T08:19:21.308Z,-10.3
2022-12-17T08:20:21.313Z,-10.3
2022-12-17T08:21:21.316Z,-10.3
2022-12-17T08:22:21.326Z,-10.2
2022-12-17T08:23:21.331Z,-10.2
2022-12-17T08:24:21.314Z,-10.2
2022-12-17T08:25:21.351Z,-10.2
2022-12-17T08:26:21.308Z,-10.2
2022-12-17T08:27:21.308Z,-10.1
2022-12-17T08:28:48.817Z,-10.1
2022-12-17T08:29:21.305Z,-10.1
2022-12-17T08:30:21.314Z,-10
2022-12-17T08:31:21.339Z,-10
2022-12-17T08:32:21.316Z,-10
2022-12-17T08:33:21.311Z,-10
2022-12-17T08:34:21.309Z,-10
2022-12-17T08:35:21.314Z,-10
2022-12-17T08:36:21.313Z,-10
2022-12-17T08:37:21.436Z,-10
2022-12-17T08:38:21.310Z,-10
2022-12-17T08:39:21.321Z,-10
2022-12-17T08:40:21.311Z,-10
2022-12-17T08:41:21.307Z,-10
2022-12-17T08:42:21.435Z,-10
2022-12-17T08:43:21.310Z,-10
2022-12-17T08:44:21.312Z,-10
2022-12-17T08:45:21.309Z,-10
2022-12-17T08:46:21.360Z,-10
2022-12-17T08:47:21.315Z,-10
2022-12-17T08:48:21.311Z,-10
2022-12-17T08:49:21.310Z,-9.9
2022-12-17T08:50:21.313Z,-9.9
2022-12-17T08:51:21.314Z,-9.9
2022-12-17T08:52:21.314Z,-9.9
2022-12-17T08:53:21.314Z,-9.8
2022-12-17T08:54:21.314Z,-9.8
2022-12-17T08:55:21.335Z,-9.8
2022-12-17T08:56:21.320Z,-9.8
2022-12-17T08:57:31.320Z,-9.7
2022-12-17T08:58:21.312Z,-9.7
2022-12-17T08:59:21.311Z,-9.6
2022-12-17T09:00:21.312Z,-9.6
2022-12-17T09:01:21.437Z,-9.6
2022-12-17T09:02:21.451Z,-9.6
2022-12-17T09:03:21.637Z,-9.6
2022-12-17T09:04:21.313Z,-9.6
2022-12-17T09:05:21.416Z,-9.5
2022-12-17T09:06:21.316Z,-9.5
2022-12-17T09:07:21.311Z,-9.5
2022-12-17T09:08:21.307Z,-9.5
2022-12-17T09:09:21.310Z,-9.4
2022-12-17T09:10:21.357Z,-9.4
2022-12-17T09:11:21.321Z,-9.4
2022-12-17T09:12:21.311Z,-9.3
2022-12-17T09:13:21.321Z,-9.3
2022-12-17T09:14:21.305Z,-9.3
2022-12-17T09:15:21.437Z,-9.2
2022-12-17T09:16:21.884Z,-9.2
2022-12-17T09:17:21.365Z,-9.2
2022-12-17T09:18:21.626Z,-9.2
2022-12-17T09:19:21.325Z,-9.2
2022-12-17T09:20:24.902Z,-9.1
2022-12-17T09:21:21.314Z,-9.1
2022-12-17T09:22:21.316Z,-9.1
2022-12-17T09:23:21.329Z,-9
2022-12-17T09:24:21.310Z,-9
2022-12-17T09:25:21.313Z,-8.9
2022-12-17T09:26:21.315Z,-8.9
2022-12-17T09:27:21.319Z,-8.9
2022-12-17T09:28:21.333Z,-8.9
2022-12-17T09:29:21.319Z,-8.9
2022-12-17T09:30:21.316Z,-8.8
2022-12-17T09:31:21.364Z,-8.8
2022-12-17T09:32:21.314Z,-8.7
2022-12-17T09:33:21.341Z,-8.7
2022-12-17T09:34:21.315Z,-8.6
2022-12-17T09:35:21.308Z,-8.6
2022-12-17T09:36:21.309Z,-8.6
2022-12-17T09:37:21.314Z,-8.6
2022-12-17T09:38:21.352Z,-8.5
2022-12-17T09:39:21.315Z,-8.5
2022-12-17T09:40:21.313Z,-8.5
2022-12-17T09:41:21.316Z,-8.4
2022-12-17T09:42:21.316Z,-8.4
2022-12-17T09:43:21.337Z,-8.3
2022-12-17T09:44:21.316Z,-8.3
2022-12-17T09:45:21.313Z,-8.3
2022-12-17T09:46:21.359Z,-8.3
2022-12-17T09:47:21.314Z,-8.3
2022-12-17T09:48:21.330Z,-8.2
2022-12-17T09:49:21.309Z,-8.2
2022-12-17T09:50:21.314Z,-8.1
2022-12-17T09:51:21.310Z,-8.1
2022-12-17T09:52:21.314Z,-8.1
2022-12-17T09:53:21.335Z,-8
2022-12-17T09:54:21.319Z,-8
2022-12-17T09:55:21.310Z,-8
2022-12-17T09:56:21.307Z,-8
2022-12-17T09:57:21.314Z,-8
2022-12-17T09:58:21.326Z,-8
2022-12-17T09:59:21.318Z,-8
2022-12-17T10:00:21.321Z,-8
2022-12-17T10:01:21.405Z,-8
2022-12-17T10:02:21.506Z,-7.9
2022-12-17T10:03:21.441Z,-7.9
2022-12-17T10:04:21.308Z,-7.9
2022-12-17T10:05:21.317Z,-7.9
2022-12-17T10:06:22.717Z,-7.8
2022-12-17T10:07:21.310Z,-7.8
2022-12-17T10:08:21.324Z,-7.8
2022-12-17T10:09:21.313Z,-7.8
2022-12-17T10:10:21.315Z,-7.8
2022-12-17T10:11:21.314Z,-7.8
2022-12-17T10:12:21.316Z,-7.7
2022-12-17T10:13:21.327Z,-7.7
2022-12-17T10:14:21.311Z,-7.7
2022-12-17T10:15:21.318Z,-7.7
2022-12-17T10:16:21.356Z,-7.7
2022-12-17T10:17:21.420Z,-7.7
2022-12-17T10:18:21.336Z,-7.7
2022-12-17T10:19:21.323Z,-7.6
2022-12-17T10:20:21.315Z,-7.6
2022-12-17T10:21:21.379Z,-7.6
2022-12-17T10:22:21.316Z,-7.5
2022-12-17T10:23:21.309Z,-7.5
2022-12-17T10:24:21.309Z,-7.5
2022-12-17T10:25:21.314Z,-7.5
2022-12-17T10:26:21.340Z,-7.5
2022-12-17T10:27:21.310Z,-7.4
2022-12-17T10:28:21.335Z,-7.4
2022-12-17T10:29:21.318Z,-7.4
2022-12-17T10:30:21.308Z,-7.3
2022-12-17T10:31:21.364Z,-7.3
2022-12-17T10:32:21.323Z,-7.3
2022-12-17T10:33:21.654Z,-7.2
2022-12-17T10:34:21.804Z,-7.2
2022-12-17T10:35:22.112Z,-7.2
2022-12-17T10:36:21.316Z,-7.2
2022-12-17T10:37:21.313Z,-7.2
2022-12-17T10:38:21.323Z,-7.2
2022-12-17T10:39:21.317Z,-7.2
2022-12-17T10:40:21.309Z,-7.2
2022-12-17T10:41:21.321Z,-7.2
2022-12-17T10:42:21.310Z,-7.2
2022-12-17T10:43:21.319Z,-7.2
2022-12-17T10:44:21.312Z,-7.1
2022-12-17T10:45:21.320Z,-7.1
2022-12-17T10:46:21.354Z,-7.1
2022-12-17T10:47:21.369Z,-7.1
2022-12-17T10:48:21.651Z,-7.1
2022-12-17T10:49:21.495Z,-7
2022-12-17T10:50:22.412Z,-7
2022-12-17T10:51:21.589Z,-7
2022-12-17T10:52:21.308Z,-7
2022-12-17T10:53:21.312Z,-7
2022-12-17T10:54:21.307Z,-7
2022-12-17T10:55:21.536Z,-7
2022-12-17T10:56:21.426Z,-7
2022-12-17T10:57:21.318Z,-7
2022-12-17T10:58:21.310Z,-7
2022-12-17T10:59:21.314Z,-7
2022-12-17T11:00:21.527Z,-7
2022-12-17T11:01:21.395Z,-7
2022-12-17T11:02:21.633Z,-7
2022-12-17T11:03:21.339Z,-6.9
2022-12-17T11:04:21.481Z,-6.9
2022-12-17T11:05:21.316Z,-6.9
2022-12-17T11:06:21.564Z,-6.9
2022-12-17T11:07:21.312Z,-6.9
2022-12-17T11:08:21.312Z,-6.9
2022-12-17T11:09:21.323Z,-6.8
2022-12-17T11:10:21.308Z,-6.8
2022-12-17T11:11:21.327Z,-6.8
2022-12-17T11:12:23.599Z,-6.8
2022-12-17T11:13:21.314Z,-6.8
2022-12-17T11:14:21.315Z,-6.8
2022-12-17T11:15:21.312Z,-6.8
2022-12-17T11:16:21.355Z,-6.8
2022-12-17T11:17:21.314Z,-6.8
2022-12-17T11:18:21.308Z,-6.8
2022-12-17T11:19:21.546Z,-6.8
2022-12-17T11:20:21.316Z,-6.8
2022-12-17T11:21:21.335Z,-6.8
2022-12-17T11:22:21.312Z,-6.8
2022-12-17T11:23:21.307Z,-6.8
2022-12-17T11:24:22.859Z,-6.7
2022-12-17T11:25:21.311Z,-6.7
2022-12-17T11:26:21.326Z,-6.7
2022-12-17T11:27:21.314Z,-6.7
2022-12-17T11:28:21.342Z,-6.7
2022-12-17T11:29:21.309Z,-6.7
2022-12-17T11:30:23.138Z,-6.7
2022-12-17T11:31:21.409Z,-6.6
2022-12-17T11:32:21.308Z,-6.6
2022-12-17T11:33:21.417Z,-6.6
2022-12-17T11:34:21.311Z,-6.6
2022-12-17T11:35:21.314Z,-6.6
2022-12-17T11:36:25.891Z,-6.6
2022-12-17T11:37:21.314Z,-6.5
2022-12-17T11:38:21.310Z,-6.5
2022-12-17T11:39:21.311Z,-6.5
2022-12-17T11:40:21.313Z,-6.5
2022-12-17T11:41:21.317Z,-6.5
2022-12-17T11:42:21.318Z,-6.5
2022-12-17T11:43:21.311Z,-6.5
2022-12-17T11:44:21.314Z,-6.5
2022-12-17T11:45:21.314Z,-6.5
2022-12-17T11:46:21.327Z,-6.5
2022-12-17T11:47:21.313Z,-6.5
2022-12-17T11:48:21.312Z,-6.5
2022-12-17T11:49:21.307Z,-6.5
2022-12-17T11:50:21.313Z,-6.5
2022-12-17T11:51:21.308Z,-6.4
2022-12-17T11:52:21.313Z,-6.4
2022-12-17T11:53:26.076Z,-6.4
2022-12-17T11:54:21.309Z,-6.4
2022-12-17T11:55:21.317Z,-6.3
2022-12-17T11:56:21.330Z,-6.3
2022-12-17T11:57:21.315Z,-6.3
2022-12-17T11:58:21.415Z,-6.3
2022-12-17T11:59:21.310Z,-6.3
2022-12-17T12:00:21.318Z,-6.3
2022-12-17T12:01:21.350Z,-6.3
2022-12-17T12:02:21.375Z,-6.3
2022-12-17T12:03:21.416Z,-6.3
2022-12-17T12:04:21.348Z,-6.3
2022-12-17T12:05:21.315Z,-6.3
2022-12-17T12:06:21.325Z,-6.3
2022-12-17T12:07:21.317Z,-6.3
2022-12-17T12:08:21.308Z,-6.3
2022-12-17T12:09:21.317Z,-6.3
2022-12-17T12:10:21.315Z,-6.3
2022-12-17T12:11:21.316Z,-6.3
2022-12-17T12:12:21.316Z,-6.3
2022-12-17T12:13:21.361Z,-6.3
2022-12-17T12:14:21.308Z,-6.3
2022-12-17T12:15:21.313Z,-6.3
2022-12-17T12:16:21.326Z,-6.3
2022-12-17T12:17:21.310Z,-6.3
2022-12-17T12:18:21.316Z,-6.3
2022-12-17T12:19:21.345Z,-6.3
2022-12-17T12:20:21.316Z,-6.3
2022-12-17T12:21:21.313Z,-6.3
2022-12-17T12:22:24.751Z,-6.3
2022-12-17T12:23:21.494Z,-6.3
2022-12-17T12:24:21.334Z,-6.3
2022-12-17T12:25:21.313Z,-6.3
2022-12-17T12:26:21.430Z,-6.3
2022-12-17T12:27:21.320Z,-6.3
2022-12-17T12:28:21.312Z,-6.3
2022-12-17T12:29:21.314Z,-6.3
2022-12-17T12:30:21.316Z,-6.3
2022-12-17T12:31:21.359Z,-6.3
2022-12-17T12:32:21.321Z,-6.3
2022-12-17T12:33:21.311Z,-6.3
2022-12-17T12:34:21.315Z,-6.3
2022-12-17T12:35:21.312Z,-6.3
2022-12-17T12:36:21.313Z,-6.3
2022-12-17T12:37:21.318Z,-6.3
2022-12-17T12:38:21.318Z,-6.3
2022-12-17T12:39:21.317Z,-6.3
2022-12-17T12:40:21.319Z,-6.3
2022-12-17T12:41:21.312Z,-6.3
2022-12-17T12:42:21.311Z,-6.3
2022-12-17T12:43:21.307Z,-6.3
2022-12-17T12:44:21.319Z,-6.3
2022-12-17T12:45:21.311Z,-6.3
2022-12-17T12:46:21.376Z,-6.3
2022-12-17T12:47:21.313Z,-6.3
2022-12-17T12:48:21.311Z,-6.3
2022-12-17T12:49:21.319Z,-6.3
2022-12-17T12:50:21.616Z,-6.3
2022-12-17T12:51:21.884Z,-6.3
2022-12-17T12:52:21.317Z,-6.3
2022-12-17T12:53:21.609Z,-6.3
2022-12-17T12:54:21.319Z,-6.3
2022-12-17T12:55:21.506Z,-6.3
2022-12-17T12:56:21.317Z,-6.3
2022-12-17T12:57:21.316Z,-6.3
2022-12-17T12:58:21.333Z,-6.3
2022-12-17T12:59:21.487Z,-6.3
2022-12-17T13:00:21.320Z,-6.3
2022-12-17T13:01:21.550Z,-6.3
2022-12-17T13:02:21.477Z,-6.3
2022-12-17T13:03:24.149Z,-6.3
2022-12-17T13:04:21.324Z,-6.2
2022-12-17T13:05:21.312Z,-6.3
2022-12-17T13:06:21.314Z,-6.3
2022-12-17T13:07:21.315Z,-6.3
2022-12-17T13:08:21.318Z,-6.3
2022-12-17T13:09:21.339Z,-6.3
2022-12-17T13:10:21.308Z,-6.3
2022-12-17T13:11:21.308Z,-6.3